Time;durP1;ratioP1;P1;durP2;ratioP2;P2;SDS_P1;SDS_P2;PMS_P1;PMS_P2;Temp;Humidity;BMP_temperature;BMP_pressure;BME280_temperature;BME280_humidity;BME280_pressure;Samples;Min_cycle;Max_cycle;Signal;HPM_P1;HPM_P2
2023/05/09 00:01:30;;;;;;;1.83;1.23;;;15.10;99.90;;;;;;5074036;28;20017;-75
2023/05/09 00:03:58;;;;;;;4.28;1.65;;;15.10;99.90;;;;;;5057722;28;20037;-74
2023/05/09 00:06:24;;;;;;;0.40;0.40;;;15.00;99.90;;;;;;5075981;28;20020;-76
2023/05/09 00:08:50;;;;;;;2.28;1.90;;;15.10;99.90;;;;;;5075912;28;20032;-75
2023/05/09 00:11:16;;;;;;;2.97;1.77;;;15.10;99.90;;;;;;5075458;28;20149;-74
2023/05/09 00:13:43;;;;;;;3.03;1.15;;;15.10;99.90;;;;;;5075727;28;20032;-75
2023/05/09 00:16:09;;;;;;;0.88;0.55;;;15.00;99.90;;;;;;5075227;28;20125;-71
2023/05/09 00:18:36;;;;;;;1.65;1.40;;;15.10;99.90;;;;;;5075450;28;20031;-70
2023/05/09 00:21:03;;;;;;;4.03;2.15;;;15.00;99.90;;;;;;5075332;28;20041;-71
2023/05/09 00:23:31;;;;;;;1.77;1.27;;;15.00;99.90;;;;;;5057244;28;20063;-70
2023/05/09 00:25:58;;;;;;;18.25;1.60;;;15.00;99.90;;;;;;5075316;28;20126;-71
2023/05/09 00:28:24;;;;;;;0.45;0.45;;;14.90;99.90;;;;;;5057595;28;20037;-72
2023/05/09 00:30:49;;;;;;;1.80;0.85;;;14.90;99.90;;;;;;5056973;28;20036;-72
2023/05/09 00:33:15;;;;;;;2.60;1.27;;;14.80;99.90;;;;;;5075046;28;20028;-71
2023/05/09 00:35:41;;;;;;;0.90;0.85;;;14.90;99.90;;;;;;5075286;28;20127;-72
2023/05/09 00:38:07;;;;;;;5.15;1.27;;;15.00;99.90;;;;;;5057003;28;20070;-71
2023/05/09 00:40:32;;;;;;;1.10;0.80;;;15.00;99.90;;;;;;5069940;28;20028;-71
2023/05/09 00:42:59;;;;;;;2.03;1.55;;;15.00;99.90;;;;;;5074909;28;20385;-72
2023/05/09 00:45:25;;;;;;;23.58;2.00;;;15.00;99.90;;;;;;5073414;28;20031;-70
2023/05/09 00:47:51;;;;;;;0.10;0.10;;;15.10;99.90;;;;;;5075074;28;20107;-73
2023/05/09 00:50:17;;;;;;;1.50;1.40;;;15.00;99.90;;;;;;5073424;28;20438;-70
2023/05/09 00:52:42;;;;;;;0.00;0.00;;;15.00;99.90;;;;;;5074918;28;20036;-72
2023/05/09 00:55:09;;;;;;;0.68;0.63;;;15.10;99.90;;;;;;5057229;28;20497;-70
2023/05/09 00:57:35;;;;;;;0.98;0.98;;;14.90;99.90;;;;;;5073635;28;20024;-70
2023/05/09 01:00:03;;;;;;;1.83;0.88;;;14.90;99.90;;;;;;5074580;28;20377;-70
2023/05/09 01:02:30;;;;;;;5.97;3.47;;;14.90;99.90;;;;;;5073127;28;20067;-71
2023/05/09 01:04:57;;;;;;;0.52;0.52;;;14.80;99.90;;;;;;5074815;28;20028;-71
2023/05/09 01:07:43;;;;;;;0.13;0.13;;;14.80;99.90;;;;;;5073229;28;20028;-71
2023/05/09 01:10:23;;;;;;;0.38;0.38;;;14.90;99.90;;;;;;5074570;28;20511;-70
2023/05/09 01:13:02;;;;;;;1.10;1.00;;;15.00;99.90;;;;;;5073598;28;20107;-70
2023/05/09 01:15:31;;;;;;;5.47;1.40;;;15.00;99.90;;;;;;5074479;28;20381;-71
2023/05/09 01:18:22;;;;;;;0.10;0.10;;;14.90;99.90;;;;;;5072859;28;20116;-70
2023/05/09 01:20:57;;;;;;;0.10;0.10;;;15.00;99.90;;;;;;5073238;28;20060;-71
2023/05/09 01:24:00;;;;;;;1.60;1.35;;;15.00;99.90;;;;;;5073906;28;20037;-70
2023/05/09 01:26:41;;;;;;;0.82;0.77;;;14.90;99.90;;;;;;5074285;28;20473;-70
2023/05/09 01:29:28;;;;;;;0.38;0.32;;;14.90;99.90;;;;;;5073912;28;20029;-70
2023/05/09 01:31:56;;;;;;;0.10;0.10;;;14.90;99.90;;;;;;5056162;28;20021;-70
2023/05/09 01:34:27;;;;;;;0.80;0.73;;;15.00;99.90;;;;;;5073711;28;20032;-70
2023/05/09 01:36:57;;;;;;;3.03;2.83;;;14.90;99.90;;;;;;5072666;28;20021;-71
2023/05/09 01:39:25;;;;;;;3.58;2.58;;;14.80;99.90;;;;;;5073811;28;20059;-71
2023/05/09 01:41:54;;;;;;;3.10;2.03;;;14.80;99.90;;;;;;5039028;28;20039;-71
2023/05/09 01:44:22;;;;;;;18.52;3.42;;;14.80;99.90;;;;;;5065582;28;20431;-70
2023/05/09 01:46:49;;;;;;;0.30;0.30;;;14.70;99.90;;;;;;5083809;28;20037;-70
2023/05/09 01:49:17;;;;;;;0.30;0.30;;;14.70;99.90;;;;;;5073438;28;20023;-70
2023/05/09 01:51:44;;;;;;;1.83;0.90;;;14.70;99.90;;;;;;5055841;28;20032;-70
2023/05/09 01:54:11;;;;;;;0.98;0.93;;;14.70;99.90;;;;;;5073444;28;20086;-69
2023/05/09 01:56:39;;;;;;;0.03;0.03;;;14.70;99.90;;;;;;5044397;28;20082;-71
2023/05/09 01:59:06;;;;;;;0.43;0.43;;;14.70;99.90;;;;;;5053098;28;20024;-70
2023/05/09 02:01:33;;;;;;;2.45;2.25;;;14.70;99.90;;;;;;5055594;28;20031;-70
2023/05/09 02:04:01;;;;;;;0.38;0.17;;;14.70;99.90;;;;;;5073215;28;20032;-71
2023/05/09 02:06:28;;;;;;;0.57;0.57;;;14.70;99.90;;;;;;5073576;28;20025;-70
2023/05/09 02:08:57;;;;;;;3.47;2.20;;;14.60;99.90;;;;;;5055130;28;20469;-69
2023/05/09 02:11:24;;;;;;;1.73;0.82;;;14.50;99.90;;;;;;5073080;28;20097;-70
2023/05/09 02:13:50;;;;;;;3.40;0.85;;;14.60;99.90;;;;;;5055247;28;20537;-70
2023/05/09 02:16:17;;;;;;;0.28;0.28;;;14.60;99.90;;;;;;5055246;28;20031;-70
2023/05/09 02:18:42;;;;;;;2.85;2.65;;;14.60;99.90;;;;;;5055457;28;20111;-70
2023/05/09 02:21:08;;;;;;;14.10;2.05;;;14.60;99.90;;;;;;5055161;28;20504;-71
2023/05/09 02:23:34;;;;;;;1.42;1.38;;;14.60;99.90;;;;;;5054777;28;20049;-71
2023/05/09 02:26:00;;;;;;;11.88;1.88;;;14.70;99.90;;;;;;5072366;28;20023;-71
2023/05/09 02:28:28;;;;;;;0.77;0.63;;;14.80;99.90;;;;;;5054891;28;20500;-69
2023/05/09 02:30:57;;;;;;;0.10;0.10;;;14.70;99.90;;;;;;5073052;28;20419;-71
2023/05/09 02:33:23;;;;;;;3.33;1.13;;;14.70;99.90;;;;;;5072710;28;20028;-71
2023/05/09 02:35:50;;;;;;;2.28;1.65;;;14.80;99.90;;;;;;5055119;28;20562;-70
2023/05/09 02:38:18;;;;;;;1.50;1.08;;;14.90;99.90;;;;;;5073011;28;20030;-71
2023/05/09 02:40:46;;;;;;;0.40;0.40;;;14.80;99.90;;;;;;5068863;28;20029;-70
2023/05/09 02:43:13;;;;;;;1.05;0.95;;;14.80;99.90;;;;;;5071503;28;20028;-71
2023/05/09 02:45:39;;;;;;;2.78;2.28;;;14.60;99.90;;;;;;5062644;28;20508;-70
2023/05/09 02:48:05;;;;;;;2.08;1.15;;;14.60;99.90;;;;;;5052827;28;20020;-71
2023/05/09 02:50:31;;;;;;;3.20;1.40;;;14.50;99.90;;;;;;5052509;28;20123;-72
2023/05/09 02:52:57;;;;;;;2.70;0.70;;;14.60;99.90;;;;;;5051473;28;20488;-71
2023/05/09 02:55:23;;;;;;;1.10;1.00;;;14.80;99.90;;;;;;5047599;28;20026;-71
2023/05/09 02:57:48;;;;;;;0.50;0.50;;;15.00;99.90;;;;;;5046966;28;20028;-71
2023/05/09 03:00:16;;;;;;;1.08;0.88;;;14.90;99.90;;;;;;5043307;28;20029;-72
2023/05/09 03:02:42;;;;;;;0.55;0.52;;;14.90;99.90;;;;;;5050959;28;20052;-74
2023/05/09 03:05:14;;;;;;;0.70;0.70;;;14.90;99.90;;;;;;5047927;28;20014;-74
2023/05/09 03:07:40;;;;;;;0.47;0.47;;;14.90;99.90;;;;;;5051343;28;20032;-73
2023/05/09 03:10:06;;;;;;;1.70;1.25;;;14.90;99.90;;;;;;5031112;28;20037;-73
2023/05/09 03:12:32;;;;;;;2.15;0.77;;;14.90;99.90;;;;;;5051282;28;20083;-73
2023/05/09 03:14:57;;;;;;;0.55;0.52;;;14.90;99.90;;;;;;5048020;28;20470;-74
2023/05/09 03:17:23;;;;;;;0.85;0.60;;;14.90;99.90;;;;;;5044067;28;20596;-74
2023/05/09 03:19:49;;;;;;;2.38;2.17;;;14.90;99.90;;;;;;5050980;28;20055;-71
2023/05/09 03:22:15;;;;;;;1.35;1.25;;;14.80;99.90;;;;;;5047739;28;20080;-73
2023/05/09 03:24:50;;;;;;;1.15;0.95;;;14.80;99.90;;;;;;5050841;28;20029;-74
2023/05/09 03:27:16;;;;;;;0.45;0.45;;;14.80;99.90;;;;;;5052372;28;20028;-74
2023/05/09 03:29:42;;;;;;;0.98;0.45;;;14.80;99.90;;;;;;5048281;28;20037;-73
2023/05/09 03:32:09;;;;;;;0.68;0.68;;;14.90;99.90;;;;;;5047802;28;20014;-72
2023/05/09 03:34:34;;;;;;;0.75;0.75;;;14.90;99.90;;;;;;5051099;28;20534;-70
2023/05/09 03:37:01;;;;;;;0.00;0.00;;;15.00;99.90;;;;;;5050807;28;20114;-74
2023/05/09 03:39:28;;;;;;;1.15;0.88;;;14.90;99.90;;;;;;5046037;28;20032;-71
2023/05/09 03:41:55;;;;;;;0.68;0.68;;;15.00;99.90;;;;;;5054515;28;20021;-69
2023/05/09 03:44:21;;;;;;;1.08;0.57;;;15.10;99.90;;;;;;5051624;28;20074;-70
2023/05/09 03:46:47;;;;;;;0.28;0.28;;;15.10;99.90;;;;;;5049999;28;20464;-69
2023/05/09 03:49:14;;;;;;;4.70;2.60;;;15.00;99.90;;;;;;5034926;28;20394;-70
2023/05/09 03:51:40;;;;;;;1.83;1.73;;;14.80;99.90;;;;;;5054678;28;20030;-70
2023/05/09 03:54:10;;;;;;;2.13;1.60;;;14.80;99.90;;;;;;5050785;28;20466;-70
2023/05/09 03:56:35;;;;;;;0.30;0.30;;;14.80;99.90;;;;;;5045590;28;20029;-70
2023/05/09 03:59:01;;;;;;;2.58;2.38;;;14.80;99.90;;;;;;5053987;28;20021;-69
2023/05/09 04:01:28;;;;;;;0.98;0.85;;;14.80;99.90;;;;;;5051287;28;20022;-70
2023/05/09 04:03:58;;;;;;;0.15;0.15;;;14.80;99.90;;;;;;5083007;28;20036;-70
2023/05/09 04:06:25;;;;;;;3.65;1.90;;;14.80;99.90;;;;;;5050809;28;20112;-70
2023/05/09 04:08:51;;;;;;;2.42;0.88;;;14.80;99.90;;;;;;5045173;28;20124;-70
2023/05/09 04:11:17;;;;;;;0.20;0.20;;;14.80;99.90;;;;;;5050688;28;20033;-70
2023/05/09 04:13:45;;;;;;;0.15;0.15;;;14.80;99.90;;;;;;5043309;28;20101;-71
2023/05/09 04:16:25;;;;;;;0.52;0.52;;;14.70;99.90;;;;;;5073472;28;20067;-70
2023/05/09 04:18:51;;;;;;;1.20;1.08;;;14.70;99.90;;;;;;5050943;28;20417;-70
2023/05/09 04:21:16;;;;;;;4.25;1.25;;;14.70;99.90;;;;;;5053163;28;20033;-70
2023/05/09 04:23:46;;;;;;;0.20;0.20;;;14.70;99.90;;;;;;5049919;28;20378;-70
2023/05/09 04:26:14;;;;;;;5.38;1.65;;;14.80;99.90;;;;;;5033808;28;20074;-70
2023/05/09 04:28:41;;;;;;;0.10;0.10;;;14.70;99.90;;;;;;5050285;28;20029;-71
2023/05/09 04:31:08;;;;;;;10.77;3.25;;;14.90;99.90;;;;;;5049018;28;20052;-70
2023/05/09 04:33:35;;;;;;;1.98;1.85;;;14.80;99.90;;;;;;5053850;28;20028;-69
2023/05/09 04:36:03;;;;;;;0.30;0.30;;;14.80;99.90;;;;;;5050273;28;20024;-70
2023/05/09 04:38:29;;;;;;;5.18;2.17;;;14.90;99.90;;;;;;5054698;28;20543;-70
2023/05/09 04:40:57;;;;;;;0.43;0.43;;;14.80;99.90;;;;;;5050412;28;20025;-70
2023/05/09 04:43:26;;;;;;;0.00;0.00;;;14.80;99.90;;;;;;5048198;28;20033;-70
2023/05/09 04:45:52;;;;;;;0.65;0.65;;;14.90;99.90;;;;;;5041268;28;20017;-70
2023/05/09 04:48:18;;;;;;;4.20;0.75;;;14.90;99.90;;;;;;5050298;28;20052;-71
2023/05/09 04:50:47;;;;;;;0.52;0.50;;;14.90;99.90;;;;;;5050117;28;20103;-70
2023/05/09 04:53:13;;;;;;;0.20;0.20;;;14.80;99.90;;;;;;5049744;28;20029;-71
2023/05/09 04:55:39;;;;;;;2.08;1.45;;;14.80;99.90;;;;;;5053437;28;20028;-71
2023/05/09 04:58:07;;;;;;;1.05;0.80;;;14.90;99.90;;;;;;5050231;28;20030;-71
2023/05/09 05:00:34;;;;;;;0.20;0.20;;;14.80;99.90;;;;;;5047343;28;20029;-70
2023/05/09 05:03:00;;;;;;;3.75;2.33;;;14.80;99.90;;;;;;5049995;28;20033;-72
2023/05/09 05:05:27;;;;;;;2.60;1.80;;;14.80;99.90;;;;;;5043700;28;20025;-70
2023/05/09 05:07:54;;;;;;;6.38;2.95;;;14.70;99.90;;;;;;5049685;28;20466;-74
2023/05/09 05:10:22;;;;;;;0.20;0.20;;;14.70;99.90;;;;;;5029907;28;20374;-72
2023/05/09 05:12:53;;;;;;;1.58;1.48;;;14.80;99.90;;;;;;5049918;28;20120;-72
2023/05/09 05:15:19;;;;;;;0.10;0.10;;;14.80;99.90;;;;;;5053195;28;20451;-74
2023/05/09 05:17:46;;;;;;;0.22;0.22;;;14.80;99.90;;;;;;5052917;28;20017;-71
2023/05/09 05:20:12;;;;;;;2.25;1.70;;;14.80;99.90;;;;;;5049443;28;20040;-75
2023/05/09 05:22:43;;;;;;;1.45;0.98;;;14.80;99.90;;;;;;5047399;28;20497;-75
2023/05/09 05:25:09;;;;;;;5.88;2.72;;;14.80;99.90;;;;;;5049698;28;20060;-73
2023/05/09 05:27:36;;;;;;;1.45;1.00;;;14.80;99.90;;;;;;5060554;28;20116;-71
2023/05/09 05:30:02;;;;;;;0.45;0.45;;;14.70;99.90;;;;;;5049390;28;20558;-73
2023/05/09 05:32:28;;;;;;;0.25;0.25;;;14.70;99.90;;;;;;5036400;28;20033;-72
2023/05/09 05:34:53;;;;;;;1.27;1.15;;;14.70;99.90;;;;;;5049104;28;20103;-71
2023/05/09 05:37:19;;;;;;;2.63;1.75;;;14.70;99.90;;;;;;5026640;28;20024;-75
2023/05/09 05:39:46;;;;;;;2.13;1.65;;;14.70;99.90;;;;;;5051392;28;20036;-71
2023/05/09 05:42:11;;;;;;;4.00;0.95;;;14.60;99.90;;;;;;5049358;28;20034;-74
2023/05/09 05:44:38;;;;;;;2.28;1.58;;;14.60;99.90;;;;;;5052154;28;20033;-72
2023/05/09 05:47:04;;;;;;;3.08;2.33;;;14.70;99.90;;;;;;5049254;28;20406;-72
2023/05/09 05:49:30;;;;;;;0.73;0.52;;;14.70;99.90;;;;;;5044701;28;20021;-73
2023/05/09 05:51:56;;;;;;;2.42;1.88;;;14.60;99.90;;;;;;5049132;28;20041;-74
2023/05/09 05:54:22;;;;;;;0.00;0.00;;;14.70;99.90;;;;;;5042684;28;20232;-71
2023/05/09 05:56:48;;;;;;;0.50;0.35;;;14.70;99.90;;;;;;5049165;28;20049;-71
2023/05/09 05:59:14;;;;;;;2.50;2.28;;;14.70;99.90;;;;;;5047288;28;20033;-71
2023/05/09 06:01:40;;;;;;;1.17;0.75;;;14.70;99.90;;;;;;5044375;28;20379;-71
2023/05/09 06:04:05;;;;;;;6.45;3.20;;;14.70;99.90;;;;;;5034631;28;20442;-73
2023/05/09 06:06:33;;;;;;;1.58;1.40;;;14.50;99.90;;;;;;5053392;28;20104;-71
2023/05/09 06:08:58;;;;;;;2.20;1.85;;;14.50;99.90;;;;;;5049427;28;20037;-71
2023/05/09 06:11:24;;;;;;;0.82;0.80;;;14.50;99.90;;;;;;5032289;28;20099;-71
2023/05/09 06:13:50;;;;;;;0.63;0.63;;;14.60;99.90;;;;;;5045112;28;20024;-70
2023/05/09 06:16:16;;;;;;;0.30;0.30;;;14.70;99.90;;;;;;5048524;28;20496;-73
2023/05/09 06:18:42;;;;;;;1.65;1.42;;;14.70;99.90;;;;;;5035399;28;20028;-76
2023/05/09 06:21:08;;;;;;;0.05;0.05;;;14.70;99.90;;;;;;5052918;28;20061;-72
2023/05/09 06:23:35;;;;;;;1.52;1.35;;;14.70;99.90;;;;;;5053120;28;20124;-74
2023/05/09 06:26:02;;;;;;;6.72;0.68;;;14.60;99.90;;;;;;5053086;28;20090;-74
2023/05/09 06:28:29;;;;;;;0.40;0.40;;;14.60;99.90;;;;;;5048642;28;20025;-74
2023/05/09 06:30:54;;;;;;;0.20;0.20;;;14.70;99.90;;;;;;5046866;28;20036;-70
2023/05/09 06:33:20;;;;;;;0.30;0.30;;;14.80;99.90;;;;;;5052934;28;20065;-70
2023/05/09 06:35:46;;;;;;;5.75;4.65;;;14.90;99.90;;;;;;5052889;28;20065;-71
2023/05/09 06:38:11;;;;;;;3.67;1.48;;;14.90;99.90;;;;;;5052927;28;20103;-71
2023/05/09 06:40:37;;;;;;;2.25;1.10;;;14.90;99.90;;;;;;5052612;28;20350;-71
2023/05/09 06:43:03;;;;;;;1.17;1.02;;;14.90;99.90;;;;;;5052590;28;20025;-71
2023/05/09 06:45:29;;;;;;;0.00;0.00;;;14.90;99.90;;;;;;5031748;28;20049;-71
2023/05/09 06:47:55;;;;;;;1.23;1.20;;;14.80;99.90;;;;;;5046282;28;20489;-71
2023/05/09 06:50:21;;;;;;;30.23;2.40;;;14.90;99.90;;;;;;5052578;28;20068;-71
2023/05/09 06:52:47;;;;;;;3.40;2.05;;;14.80;99.90;;;;;;5052658;28;20033;-71
2023/05/09 06:55:13;;;;;;;3.78;2.65;;;14.80;99.90;;;;;;5031467;28;20026;-71
2023/05/09 06:57:39;;;;;;;0.82;0.70;;;14.90;99.90;;;;;;5051975;28;20112;-70
2023/05/09 07:00:05;;;;;;;0.77;0.77;;;15.00;99.90;;;;;;5052587;28;20069;-71
2023/05/09 07:02:31;;;;;;;0.25;0.25;;;15.00;99.90;;;;;;5052162;28;20037;-70
2023/05/09 07:04:57;;;;;;;6.03;0.82;;;15.00;99.90;;;;;;5052664;28;20025;-71
2023/05/09 07:07:23;;;;;;;4.68;0.88;;;15.00;99.90;;;;;;5033075;28;20041;-71
2023/05/09 07:09:48;;;;;;;1.88;1.10;;;15.00;99.90;;;;;;5053270;28;20465;-70
2023/05/09 07:12:14;;;;;;;1.35;1.25;;;15.00;99.90;;;;;;5058834;28;20052;-70
2023/05/09 07:14:40;;;;;;;0.45;0.45;;;14.90;99.90;;;;;;5059148;28;20446;-70
2023/05/09 07:17:07;;;;;;;0.98;0.93;;;15.00;99.90;;;;;;5058779;28;20029;-72
2023/05/09 07:19:33;;;;;;;1.25;1.05;;;14.90;99.90;;;;;;5059125;28;20384;-71
2023/05/09 07:21:59;;;;;;;1.25;1.10;;;15.00;99.90;;;;;;5058967;28;20025;-71
2023/05/09 07:24:25;;;;;;;2.10;1.00;;;15.10;99.90;;;;;;5059140;28;20488;-73
2023/05/09 07:26:51;;;;;;;7.85;2.28;;;15.00;99.90;;;;;;5041080;28;20082;-71
2023/05/09 07:29:17;;;;;;;5.13;2.53;;;15.00;99.90;;;;;;5059108;28;20411;-70
2023/05/09 07:31:43;;;;;;;0.95;0.95;;;15.00;99.90;;;;;;5058820;28;20386;-71
2023/05/09 07:34:09;;;;;;;0.70;0.65;;;15.00;99.90;;;;;;5059093;28;20036;-70
2023/05/09 07:36:36;;;;;;;2.03;1.45;;;15.00;99.90;;;;;;5058626;28;20029;-71
2023/05/09 07:39:03;;;;;;;4.03;1.70;;;15.00;99.90;;;;;;5058866;28;20055;-76
2023/05/09 07:41:30;;;;;;;3.80;2.85;;;14.90;99.90;;;;;;5058674;28;20487;-76
2023/05/09 07:43:56;;;;;;;3.60;2.45;;;14.90;99.90;;;;;;5058522;28;20041;-76
2023/05/09 07:46:21;;;;;;;0.52;0.52;;;15.00;99.90;;;;;;5038142;28;20029;-76
2023/05/09 07:48:47;;;;;;;3.75;2.08;;;15.00;99.90;;;;;;5058878;28;20037;-75
2023/05/09 07:51:13;;;;;;;2.35;1.92;;;15.10;99.90;;;;;;5059096;28;20120;-76
2023/05/09 07:53:39;;;;;;;1.48;1.38;;;15.10;99.90;;;;;;5058727;28;20112;-74
2023/05/09 07:56:05;;;;;;;1.00;0.70;;;15.20;99.90;;;;;;5037631;28;20031;-72
2023/05/09 07:58:32;;;;;;;0.55;0.55;;;15.20;99.90;;;;;;5051387;28;20021;-76
2023/05/09 08:00:58;;;;;;;0.55;0.55;;;15.20;99.90;;;;;;5058655;28;20399;-76
2023/05/09 08:03:23;;;;;;;3.30;1.55;;;15.30;99.90;;;;;;5058823;28;20067;-75
2023/05/09 08:05:54;;;;;;;3.08;2.17;;;15.30;99.90;;;;;;5058630;28;20025;-76
2023/05/09 08:08:20;;;;;;;2.63;1.85;;;15.30;99.90;;;;;;5058691;28;20028;-74
2023/05/09 08:10:46;;;;;;;0.63;0.63;;;15.20;99.90;;;;;;5058608;28;20088;-74
2023/05/09 08:13:11;;;;;;;1.02;0.98;;;15.30;99.90;;;;;;5058530;28;20481;-75
2023/05/09 08:15:37;;;;;;;0.60;0.43;;;15.30;99.90;;;;;;5058690;28;20086;-76
2023/05/09 08:18:03;;;;;;;0.82;0.82;;;15.40;99.90;;;;;;5058477;28;20025;-74
2023/05/09 08:20:30;;;;;;;2.00;0.88;;;15.30;99.90;;;;;;5059043;28;20029;-75
2023/05/09 08:22:56;;;;;;;4.05;3.65;;;15.30;99.90;;;;;;5055743;28;20501;-74
2023/05/09 08:25:22;;;;;;;4.97;2.85;;;15.30;99.90;;;;;;5055495;28;20070;-76
2023/05/09 08:27:48;;;;;;;2.05;1.70;;;15.20;99.90;;;;;;5035365;28;20029;-76
2023/05/09 08:30:14;;;;;;;0.82;0.80;;;15.20;99.90;;;;;;5055546;28;20484;-75
2023/05/09 08:32:40;;;;;;;4.35;1.80;;;15.30;99.90;;;;;;5055495;28;20028;-76
2023/05/09 08:35:07;;;;;;;5.05;1.88;;;15.20;99.90;;;;;;5055150;28;20032;-76
2023/05/09 08:37:34;;;;;;;2.15;1.70;;;15.20;99.90;;;;;;5055239;28;20021;-76
2023/05/09 08:40:01;;;;;;;13.80;4.07;;;15.20;99.90;;;;;;5054933;28;20416;-76
2023/05/09 08:42:28;;;;;;;1.15;0.95;;;15.30;99.90;;;;;;5054656;28;20504;-75
2023/05/09 08:44:54;;;;;;;6.68;2.83;;;15.40;99.90;;;;;;5054947;28;20052;-76
2023/05/09 08:47:20;;;;;;;2.10;1.90;;;15.30;99.90;;;;;;5037148;28;20029;-76
2023/05/09 08:49:48;;;;;;;5.93;4.20;;;15.20;99.90;;;;;;5053797;28;20039;-75
2023/05/09 08:52:14;;;;;;;1.75;1.65;;;15.20;99.90;;;;;;5054630;28;20029;-76
2023/05/09 08:54:40;;;;;;;1.77;1.65;;;15.20;99.90;;;;;;5033751;28;20374;-75
2023/05/09 08:57:06;;;;;;;3.22;1.60;;;15.00;99.90;;;;;;5049594;28;20029;-76
2023/05/09 08:59:35;;;;;;;0.03;0.03;;;15.10;99.90;;;;;;5054802;28;20029;-76
2023/05/09 09:02:04;;;;;;;1.00;0.98;;;15.10;99.90;;;;;;5054639;28;20420;-76
2023/05/09 09:04:30;;;;;;;4.03;2.85;;;15.30;99.90;;;;;;5016969;28;20065;-76
2023/05/09 09:06:56;;;;;;;7.38;2.35;;;15.10;99.90;;;;;;5046816;28;20076;-76
2023/05/09 09:09:22;;;;;;;2.40;2.30;;;15.20;99.90;;;;;;5054553;28;20115;-76
2023/05/09 09:11:49;;;;;;;10.57;3.60;;;15.30;99.90;;;;;;5054300;28;20122;-75
2023/05/09 09:14:22;;;;;;;0.30;0.30;;;15.30;99.90;;;;;;5054442;28;20031;-75
2023/05/09 09:16:49;;;;;;;2.85;1.30;;;15.20;99.90;;;;;;5054573;28;20040;-76
2023/05/09 09:19:16;;;;;;;0.40;0.40;;;15.10;99.90;;;;;;5053968;28;20078;-76
2023/05/09 09:21:45;;;;;;;0.40;0.05;;;15.30;99.90;;;;;;5033114;28;20097;-75
2023/05/09 09:24:20;;;;;;;0.70;0.70;;;15.40;99.90;;;;;;5048444;28;20040;-76
2023/05/09 09:26:47;;;;;;;14.10;4.05;;;15.50;99.90;;;;;;5053887;28;20040;-74
2023/05/09 09:29:14;;;;;;;1.20;0.63;;;15.30;99.90;;;;;;5054209;28;20029;-75
2023/05/09 09:31:44;;;;;;;1.08;1.05;;;15.30;99.90;;;;;;5054115;28;20025;-74
2023/05/09 09:34:13;;;;;;;5.78;3.15;;;15.20;99.90;;;;;;5053886;28;20028;-70
2023/05/09 09:36:39;;;;;;;4.30;2.75;;;15.20;99.90;;;;;;5032813;28;20440;-70
2023/05/09 09:39:05;;;;;;;0.45;0.45;;;15.10;99.90;;;;;;5044467;28;20033;-70
2023/05/09 09:41:31;;;;;;;0.50;0.50;;;15.20;99.90;;;;;;5035102;28;20083;-70
2023/05/09 09:43:57;;;;;;;5.90;3.08;;;15.30;99.90;;;;;;5053714;28;20040;-71
2023/05/09 09:46:23;;;;;;;3.17;1.85;;;15.30;99.90;;;;;;5053773;28;20142;-70
2023/05/09 09:48:53;;;;;;;5.20;3.08;;;15.30;99.90;;;;;;5032691;28;20488;-70
2023/05/09 09:51:20;;;;;;;1.33;1.05;;;15.10;99.90;;;;;;5047293;28;20493;-70
2023/05/09 09:53:46;;;;;;;0.25;0.25;;;15.10;99.90;;;;;;5053478;28;20044;-71
2023/05/09 09:56:12;;;;;;;3.78;1.83;;;15.10;99.90;;;;;;5053523;28;20036;-70
2023/05/09 09:58:37;;;;;;;3.13;1.30;;;15.20;99.90;;;;;;5032516;28;20028;-70
2023/05/09 10:01:07;;;;;;;5.63;3.08;;;15.30;99.90;;;;;;5052788;28;20021;-70
2023/05/09 10:03:38;;;;;;;5.45;3.28;;;15.20;99.90;;;;;;5032318;28;20478;-71
2023/05/09 10:06:04;;;;;;;0.13;0.13;;;15.10;99.90;;;;;;5052256;28;20033;-76
2023/05/09 10:08:30;;;;;;;1.27;1.13;;;15.10;99.90;;;;;;5053482;28;20053;-75
2023/05/09 10:10:58;;;;;;;0.43;0.43;;;15.20;99.90;;;;;;5053206;28;20063;-74
2023/05/09 10:13:24;;;;;;;3.30;2.85;;;15.30;99.90;;;;;;5053296;28;20124;-76
2023/05/09 10:15:50;;;;;;;3.40;2.60;;;15.30;99.90;;;;;;5053087;28;20074;-75
2023/05/09 10:18:18;;;;;;;2.53;1.73;;;15.30;99.90;;;;;;5053516;28;20397;-75
2023/05/09 10:20:45;;;;;;;6.50;3.17;;;15.30;99.90;;;;;;5053279;28;20496;-75
2023/05/09 10:23:14;;;;;;;2.83;1.63;;;15.10;99.90;;;;;;5052850;28;20037;-73
2023/05/09 10:25:54;;;;;;;4.88;3.30;;;15.00;99.90;;;;;;5052926;28;20501;-74
2023/05/09 10:28:25;;;;;;;4.90;2.92;;;15.00;99.90;;;;;;5053262;28;20028;-77
2023/05/09 10:31:06;;;;;;;4.47;2.75;;;15.10;99.90;;;;;;5052988;28;20044;-76
2023/05/09 10:33:45;;;;;;;5.95;2.08;;;15.10;99.90;;;;;;5053252;28;20466;-73
2023/05/09 10:36:14;;;;;;;7.03;2.45;;;15.20;99.90;;;;;;5052844;28;20035;-76
2023/05/09 10:38:41;;;;;;;0.22;0.22;;;14.90;99.90;;;;;;5052740;28;20039;-76
2023/05/09 10:41:09;;;;;;;8.52;4.15;;;15.10;99.90;;;;;;5052592;28;20029;-76
2023/05/09 10:43:35;;;;;;;4.47;2.03;;;14.90;99.90;;;;;;5052825;28;20436;-74
2023/05/09 10:46:02;;;;;;;1.75;1.58;;;14.80;99.90;;;;;;5051882;28;20083;-75
2023/05/09 10:48:28;;;;;;;0.77;0.73;;;15.00;99.90;;;;;;5031603;28;20029;-75
2023/05/09 10:50:56;;;;;;;3.92;1.70;;;15.00;99.90;;;;;;5021411;28;20420;-75
2023/05/09 10:53:23;;;;;;;1.30;0.82;;;14.90;99.90;;;;;;5048600;28;20048;-74
2023/05/09 10:55:54;;;;;;;0.32;0.25;;;15.00;99.90;;;;;;5031277;28;20029;-75
2023/05/09 10:58:35;;;;;;;0.40;0.40;;;15.10;99.90;;;;;;5044067;28;20040;-75
2023/05/09 11:01:05;;;;;;;1.58;1.42;;;15.20;99.90;;;;;;5031396;28;20552;-74
2023/05/09 11:03:53;;;;;;;1.27;1.17;;;15.20;99.90;;;;;;5044513;28;20047;-74
2023/05/09 11:06:47;;;;;;;7.93;3.83;;;15.00;99.90;;;;;;5031152;28;20031;-74
2023/05/09 11:09:27;;;;;;;0.30;0.30;;;14.80;99.90;;;;;;5049107;28;20524;-74
2023/05/09 11:11:57;;;;;;;0.22;0.22;;;14.90;99.90;;;;;;5031189;28;20076;-74
2023/05/09 11:14:30;;;;;;;2.13;1.67;;;15.00;99.90;;;;;;5049797;28;20079;-75
2023/05/09 11:16:57;;;;;;;2.72;1.35;;;14.90;99.90;;;;;;5052446;28;20112;-73
2023/05/09 11:19:45;;;;;;;13.45;1.48;;;14.90;99.90;;;;;;5052339;28;20044;-75
2023/05/09 11:22:21;;;;;;;1.40;1.20;;;14.80;99.90;;;;;;5051832;28;20037;-74
2023/05/09 11:24:48;;;;;;;2.65;1.88;;;14.90;99.90;;;;;;5034501;28;20033;-75
2023/05/09 11:27:14;;;;;;;0.55;0.55;;;14.80;99.90;;;;;;5052233;28;20032;-74
2023/05/09 11:29:48;;;;;;;1.67;0.90;;;14.70;99.90;;;;;;5052445;28;20037;-74
2023/05/09 11:32:14;;;;;;;1.55;0.35;;;14.70;99.90;;;;;;5052264;28;20490;-74
2023/05/09 11:34:43;;;;;;;1.65;1.35;;;14.90;99.90;;;;;;5052387;28;20029;-75
2023/05/09 11:37:10;;;;;;;1.70;1.15;;;14.90;99.90;;;;;;5052041;28;20516;-74
2023/05/09 11:40:03;;;;;;;2.38;1.05;;;14.90;99.90;;;;;;5051988;28;20036;-74
2023/05/09 11:42:30;;;;;;;0.88;0.57;;;14.90;99.90;;;;;;5014550;28;20041;-74
2023/05/09 11:44:57;;;;;;;1.48;1.38;;;14.90;99.90;;;;;;5049264;28;20098;-73
2023/05/09 11:47:24;;;;;;;0.65;0.65;;;14.70;99.90;;;;;;5052324;28;20013;-74
2023/05/09 11:49:50;;;;;;;1.35;0.32;;;14.70;99.90;;;;;;5052074;28;20053;-76
2023/05/09 11:52:18;;;;;;;1.17;0.75;;;14.70;99.90;;;;;;5051678;28;20111;-75
2023/05/09 11:54:44;;;;;;;1.20;0.85;;;14.60;99.90;;;;;;5052422;28;20044;-74
2023/05/09 11:57:15;;;;;;;0.90;0.70;;;14.60;99.90;;;;;;5054334;28;20048;-74
2023/05/09 11:59:42;;;;;;;2.05;1.17;;;14.40;99.90;;;;;;5056331;28;20024;-75
2023/05/09 12:02:08;;;;;;;0.95;0.90;;;14.40;99.90;;;;;;5055578;28;20037;-75
2023/05/09 12:04:35;;;;;;;1.80;1.38;;;14.30;99.90;;;;;;5035027;28;20032;-76
2023/05/09 12:07:01;;;;;;;0.30;0.22;;;14.30;99.90;;;;;;5048081;28;20032;-75
2023/05/09 12:09:31;;;;;;;0.57;0.57;;;14.40;99.90;;;;;;5055598;28;20041;-75
2023/05/09 12:11:58;;;;;;;1.25;0.47;;;14.50;99.90;;;;;;5034603;28;20029;-75
2023/05/09 12:14:33;;;;;;;0.60;0.32;;;14.30;99.90;;;;;;5031927;28;20137;-76
2023/05/09 12:17:00;;;;;;;1.48;0.93;;;14.30;99.90;;;;;;5046446;28;20025;-73
2023/05/09 12:19:26;;;;;;;0.30;0.22;;;14.30;99.90;;;;;;5055241;28;20037;-75
2023/05/09 12:22:00;;;;;;;2.50;1.40;;;14.40;99.90;;;;;;5055318;28;20084;-76
2023/05/09 12:24:27;;;;;;;0.20;0.20;;;14.30;99.90;;;;;;5055422;28;20041;-75
2023/05/09 12:26:57;;;;;;;3.33;1.95;;;14.20;99.90;;;;;;5055399;28;20025;-76
2023/05/09 12:29:24;;;;;;;1.02;1.02;;;14.30;99.90;;;;;;5018460;28;20450;-75
2023/05/09 12:31:52;;;;;;;0.57;0.57;;;14.20;99.90;;;;;;5055483;28;20033;-71
2023/05/09 12:34:18;;;;;;;0.68;0.68;;;14.10;99.90;;;;;;5054843;28;20032;-70
2023/05/09 12:36:52;;;;;;;0.50;0.50;;;14.20;99.90;;;;;;5055247;28;20037;-73
2023/05/09 12:39:23;;;;;;;0.88;0.68;;;14.20;99.90;;;;;;5056413;28;20040;-76
2023/05/09 12:41:49;;;;;;;0.90;0.80;;;14.20;99.90;;;;;;5055571;28;20021;-70
2023/05/09 12:44:24;;;;;;;0.88;0.65;;;14.10;99.90;;;;;;5055379;28;20064;-70
2023/05/09 12:47:03;;;;;;;0.10;0.10;;;14.20;99.90;;;;;;5050464;28;20029;-71
2023/05/09 12:49:30;;;;;;;2.42;1.23;;;14.40;99.90;;;;;;5046795;28;20529;-71